sensor_id;sensor_type;location;lat;lon;timestamp;pressure;altitude;pressure_sealevel;temperature;humidity
47753;BME280;2038;51.728;6.674;2022-12-11T00:01:42;100501.50;;;2.03;100.00
47753;BME280;2038;51.728;6.674;2022-12-11T00:04:08;100505.47;;;2.10;100.00
47753;BME280;2038;51.728;6.674;2022-12-11T00:06:35;100505.47;;;2.01;100.00
47753;BME280;2038;51.728;6.674;2022-12-11T00:09:02;100513.16;;;2.11;100.00
47753;BME280;2038;51.728;6.674;2022-12-11T00:11:28;100504.28;;;2.06;100.00
47753;BME280;2038;51.728;6.674;2022-12-11T00:13:54;100503.28;;;2.04;100.00
47753;BME280;2038;51.728;6.674;2022-12-11T00:16:21;100502.06;;;2.09;100.00
47753;BME280;2038;51.728;6.674;2022-12-11T00:18:47;100497.19;;;2.11;100.00
47753;BME280;2038;51.728;6.674;2022-12-11T00:21:14;100492.63;;;2.07;100.00
47753;BME280;2038;51.728;6.674;2022-12-11T00:23:40;100496.91;;;2.08;100.00
47753;BME280;2038;51.728;6.674;2022-12-11T00:26:13;100498.38;;;2.14;100.00
47753;BME280;2038;51.728;6.674;2022-12-11T00:28:41;100497.91;;;2.18;100.00
47753;BME280;2038;51.728;6.674;2022-12-11T00:31:18;100492.31;;;2.12;100.00
47753;BME280;2038;51.728;6.674;2022-12-11T00:33:45;100494.38;;;2.16;100.00
47753;BME280;2038;51.728;6.674;2022-12-11T00:36:16;100497.19;;;2.19;100.00
47753;BME280;2038;51.728;6.674;2022-12-11T00:38:47;100502.03;;;2.18;100.00
47753;BME280;2038;51.728;6.674;2022-12-11T00:41:15;100498.53;;;2.16;100.00
47753;BME280;2038;51.728;6.674;2022-12-11T00:43:42;100498.78;;;2.19;100.00
47753;BME280;2038;51.728;6.674;2022-12-11T00:46:09;100499.53;;;2.18;100.00
47753;BME280;2038;51.728;6.674;2022-12-11T00:48:36;100499.69;;;2.19;100.00
47753;BME280;2038;51.728;6.674;2022-12-11T00:51:03;100493.47;;;2.24;100.00
47753;BME280;2038;51.728;6.674;2022-12-11T00:53:30;100502.19;;;2.19;100.00
47753;BME280;2038;51.728;6.674;2022-12-11T00:55:56;100491.41;;;2.20;100.00
47753;BME280;2038;51.728;6.674;2022-12-11T00:58:22;100499.97;;;2.22;100.00
47753;BME280;2038;51.728;6.674;2022-12-11T01:00:49;100496.72;;;2.23;100.00
47753;BME280;2038;51.728;6.674;2022-12-11T01:03:16;100488.72;;;2.27;100.00
47753;BME280;2038;51.728;6.674;2022-12-11T01:05:51;100495.06;;;2.32;100.00
47753;BME280;2038;51.728;6.674;2022-12-11T01:08:18;100483.97;;;2.30;100.00
47753;BME280;2038;51.728;6.674;2022-12-11T01:10:45;100487.22;;;2.29;100.00
47753;BME280;2038;51.728;6.674;2022-12-11T01:13:11;100486.78;;;2.25;100.00
47753;BME280;2038;51.728;6.674;2022-12-11T01:15:41;100482.63;;;2.34;100.00
47753;BME280;2038;51.728;6.674;2022-12-11T01:18:13;100492.88;;;2.18;100.00
47753;BME280;2038;51.728;6.674;2022-12-11T01:20:41;100495.66;;;2.21;100.00
47753;BME280;2038;51.728;6.674;2022-12-11T01:23:09;100490.53;;;2.20;100.00
47753;BME280;2038;51.728;6.674;2022-12-11T01:25:38;100492.41;;;2.22;100.00
47753;BME280;2038;51.728;6.674;2022-12-11T01:28:05;100491.81;;;2.25;100.00
47753;BME280;2038;51.728;6.674;2022-12-11T01:30:31;100496.44;;;2.20;100.00
47753;BME280;2038;51.728;6.674;2022-12-11T01:32:58;100493.78;;;2.19;100.00
47753;BME280;2038;51.728;6.674;2022-12-11T01:35:26;100488.75;;;2.19;100.00
47753;BME280;2038;51.728;6.674;2022-12-11T01:37:52;100479.41;;;2.18;100.00
47753;BME280;2038;51.728;6.674;2022-12-11T01:40:20;100478.09;;;2.13;100.00
47753;BME280;2038;51.728;6.674;2022-12-11T01:42:46;100476.59;;;2.23;100.00
47753;BME280;2038;51.728;6.674;2022-12-11T01:45:24;100474.66;;;2.29;100.00
47753;BME280;2038;51.728;6.674;2022-12-11T01:48:06;100478.19;;;2.31;100.00
47753;BME280;2038;51.728;6.674;2022-12-11T01:50:40;100480.28;;;2.27;100.00
47753;BME280;2038;51.728;6.674;2022-12-11T01:53:15;100472.94;;;2.20;100.00
47753;BME280;2038;51.728;6.674;2022-12-11T01:55:46;100462.53;;;2.25;100.00
47753;BME280;2038;51.728;6.674;2022-12-11T01:58:18;100465.69;;;2.14;100.00
47753;BME280;2038;51.728;6.674;2022-12-11T02:00:48;100465.06;;;2.17;100.00
47753;BME280;2038;51.728;6.674;2022-12-11T02:03:14;100462.88;;;2.20;100.00
47753;BME280;2038;51.728;6.674;2022-12-11T02:05:40;100466.41;;;2.22;100.00
47753;BME280;2038;51.728;6.674;2022-12-11T02:08:07;100462.25;;;2.22;100.00
47753;BME280;2038;51.728;6.674;2022-12-11T02:13:48;100465.66;;;2.23;100.00
47753;BME280;2038;51.728;6.674;2022-12-11T02:16:44;100465.34;;;2.28;100.00
47753;BME280;2038;51.728;6.674;2022-12-11T02:19:44;100458.13;;;2.23;100.00
47753;BME280;2038;51.728;6.674;2022-12-11T02:22:48;100449.69;;;2.22;100.00
47753;BME280;2038;51.728;6.674;2022-12-11T02:25:56;100451.78;;;2.18;100.00
47753;BME280;2038;51.728;6.674;2022-12-11T02:28:59;100456.63;;;2.25;100.00
47753;BME280;2038;51.728;6.674;2022-12-11T02:31:45;100453.41;;;2.17;100.00
47753;BME280;2038;51.728;6.674;2022-12-11T02:34:33;100452.19;;;2.22;100.00
47753;BME280;2038;51.728;6.674;2022-12-11T02:37:10;100442.19;;;2.14;100.00
47753;BME280;2038;51.728;6.674;2022-12-11T02:39:43;100452.56;;;2.08;100.00
47753;BME280;2038;51.728;6.674;2022-12-11T02:42:12;100456.94;;;2.19;100.00
47753;BME280;2038;51.728;6.674;2022-12-11T02:44:41;100452.66;;;2.18;100.00
47753;BME280;2038;51.728;6.674;2022-12-11T02:47:12;100451.66;;;2.16;100.00
47753;BME280;2038;51.728;6.674;2022-12-11T02:49:43;100456.50;;;2.23;100.00
47753;BME280;2038;51.728;6.674;2022-12-11T02:52:16;100450.84;;;2.26;100.00
47753;BME280;2038;51.728;6.674;2022-12-11T02:54:47;100458.66;;;2.29;100.00
47753;BME280;2038;51.728;6.674;2022-12-11T02:57:41;100451.72;;;2.35;100.00
47753;BME280;2038;51.728;6.674;2022-12-11T03:00:13;100446.69;;;2.35;100.00
47753;BME280;2038;51.728;6.674;2022-12-11T03:02:41;100443.72;;;2.39;100.00
47753;BME280;2038;51.728;6.674;2022-12-11T03:05:09;100446.22;;;2.39;100.00
47753;BME280;2038;51.728;6.674;2022-12-11T03:07:39;100439.06;;;2.52;100.00
47753;BME280;2038;51.728;6.674;2022-12-11T03:10:11;100437.91;;;2.49;100.00
47753;BME280;2038;51.728;6.674;2022-12-11T03:12:42;100432.72;;;2.47;100.00
47753;BME280;2038;51.728;6.674;2022-12-11T03:15:16;100430.06;;;2.46;100.00
47753;BME280;2038;51.728;6.674;2022-12-11T03:20:46;100431.94;;;2.57;100.00
47753;BME280;2038;51.728;6.674;2022-12-11T03:23:33;100427.59;;;2.64;100.00
47753;BME280;2038;51.728;6.674;2022-12-11T03:26:14;100426.13;;;2.58;100.00
47753;BME280;2038;51.728;6.674;2022-12-11T03:31:28;100433.84;;;2.59;100.00
47753;BME280;2038;51.728;6.674;2022-12-11T03:34:06;100431.94;;;2.57;100.00
47753;BME280;2038;51.728;6.674;2022-12-11T03:36:38;100428.94;;;2.61;100.00
47753;BME280;2038;51.728;6.674;2022-12-11T03:39:14;100432.63;;;2.64;100.00
47753;BME280;2038;51.728;6.674;2022-12-11T03:41:45;100439.13;;;2.62;100.00
47753;BME280;2038;51.728;6.674;2022-12-11T03:44:15;100434.25;;;2.64;100.00
47753;BME280;2038;51.728;6.674;2022-12-11T03:46:43;100430.72;;;2.62;100.00
47753;BME280;2038;51.728;6.674;2022-12-11T03:49:23;100427.75;;;2.57;100.00
47753;BME280;2038;51.728;6.674;2022-12-11T03:51:55;100428.84;;;2.51;100.00
47753;BME280;2038;51.728;6.674;2022-12-11T03:54:24;100418.31;;;2.55;100.00
47753;BME280;2038;51.728;6.674;2022-12-11T03:56:54;100428.06;;;2.60;100.00
47753;BME280;2038;51.728;6.674;2022-12-11T03:59:22;100431.38;;;2.51;100.00
47753;BME280;2038;51.728;6.674;2022-12-11T04:01:49;100429.91;;;2.53;100.00
47753;BME280;2038;51.728;6.674;2022-12-11T04:04:16;100427.59;;;2.64;100.00
47753;BME280;2038;51.728;6.674;2022-12-11T04:06:42;100428.47;;;2.65;100.00
47753;BME280;2038;51.728;6.674;2022-12-11T04:09:08;100419.63;;;2.60;100.00
47753;BME280;2038;51.728;6.674;2022-12-11T04:11:34;100421.25;;;2.59;100.00
47753;BME280;2038;51.728;6.674;2022-12-11T04:14:06;100419.22;;;2.55;100.00
47753;BME280;2038;51.728;6.674;2022-12-11T04:16:54;100421.09;;;2.58;100.00
47753;BME280;2038;51.728;6.674;2022-12-11T04:19:21;100414.72;;;2.61;100.00
47753;BME280;2038;51.728;6.674;2022-12-11T04:22:08;100418.47;;;2.56;100.00
47753;BME280;2038;51.728;6.674;2022-12-11T04:24:54;100421.09;;;2.58;100.00
47753;BME280;2038;51.728;6.674;2022-12-11T04:27:21;100422.28;;;2.61;100.00
47753;BME280;2038;51.728;6.674;2022-12-11T04:30:08;100417.53;;;2.64;100.00
47753;BME280;2038;51.728;6.674;2022-12-11T04:32:38;100420.44;;;2.69;100.00
47753;BME280;2038;51.728;6.674;2022-12-11T04:35:07;100424.31;;;2.65;100.00
47753;BME280;2038;51.728;6.674;2022-12-11T04:37:34;100415.28;;;2.67;100.00
47753;BME280;2038;51.728;6.674;2022-12-11T04:40:02;100412.91;;;2.69;100.00
47753;BME280;2038;51.728;6.674;2022-12-11T04:42:29;100408.91;;;2.71;100.00
47753;BME280;2038;51.728;6.674;2022-12-11T04:44:56;100407.69;;;2.76;100.00
47753;BME280;2038;51.728;6.674;2022-12-11T04:47:22;100409.91;;;2.73;100.00
47753;BME280;2038;51.728;6.674;2022-12-11T04:49:48;100401.50;;;2.72;100.00
47753;BME280;2038;51.728;6.674;2022-12-11T04:52:14;100397.47;;;2.74;100.00
47753;BME280;2038;51.728;6.674;2022-12-11T04:54:42;100402.38;;;2.73;100.00
47753;BME280;2038;51.728;6.674;2022-12-11T04:57:09;100394.34;;;2.77;100.00
47753;BME280;2038;51.728;6.674;2022-12-11T04:59:35;100395.84;;;2.75;100.00
47753;BME280;2038;51.728;6.674;2022-12-11T05:02:02;100394.34;;;2.77;100.00
47753;BME280;2038;51.728;6.674;2022-12-11T05:04:33;100385.16;;;2.77;100.00
47753;BME280;2038;51.728;6.674;2022-12-11T05:07:00;100394.59;;;2.89;100.00
47753;BME280;2038;51.728;6.674;2022-12-11T05:09:27;100394.44;;;2.87;100.00
47753;BME280;2038;51.728;6.674;2022-12-11T05:11:53;100393.28;;;2.83;100.00
47753;BME280;2038;51.728;6.674;2022-12-11T05:14:20;100393.69;;;2.88;100.00
47753;BME280;2038;51.728;6.674;2022-12-11T05:16:46;100400.47;;;2.89;100.00
47753;BME280;2038;51.728;6.674;2022-12-11T05:19:13;100397.22;;;2.90;100.00
47753;BME280;2038;51.728;6.674;2022-12-11T05:21:39;100403.19;;;2.82;100.00
47753;BME280;2038;51.728;6.674;2022-12-11T05:24:06;100401.50;;;2.91;100.00
47753;BME280;2038;51.728;6.674;2022-12-11T05:26:32;100408.16;;;2.91;100.00
47753;BME280;2038;51.728;6.674;2022-12-11T05:28:58;100411.25;;;2.97;100.00
47753;BME280;2038;51.728;6.674;2022-12-11T05:31:26;100407.53;;;2.93;100.00
47753;BME280;2038;51.728;6.674;2022-12-11T05:33:53;100406.41;;;2.90;100.00
47753;BME280;2038;51.728;6.674;2022-12-11T05:36:31;100403.69;;;2.97;100.00
47753;BME280;2038;51.728;6.674;2022-12-11T05:38:59;100409.31;;;2.94;100.00
47753;BME280;2038;51.728;6.674;2022-12-11T05:41:28;100404.56;;;2.97;100.00
47753;BME280;2038;51.728;6.674;2022-12-11T05:43:56;100402.03;;;2.97;100.00
47753;BME280;2038;51.728;6.674;2022-12-11T05:46:25;100409.13;;;3.01;100.00
47753;BME280;2038;51.728;6.674;2022-12-11T05:49:02;100404.38;;;3.04;100.00
47753;BME280;2038;51.728;6.674;2022-12-11T05:51:29;100391.91;;;3.06;100.00
47753;BME280;2038;51.728;6.674;2022-12-11T05:53:56;100398.72;;;3.07;100.00
47753;BME280;2038;51.728;6.674;2022-12-11T05:56:29;100401.91;;;3.14;100.00
47753;BME280;2038;51.728;6.674;2022-12-11T05:58:57;100393.84;;;3.08;100.00
47753;BME280;2038;51.728;6.674;2022-12-11T06:01:31;100395.47;;;3.08;100.00
47753;BME280;2038;51.728;6.674;2022-12-11T06:03:59;100398.72;;;3.07;100.00
47753;BME280;2038;51.728;6.674;2022-12-11T06:06:26;100394.44;;;3.06;100.00
47753;BME280;2038;51.728;6.674;2022-12-11T06:08:55;100390.28;;;3.06;100.00
47753;BME280;2038;51.728;6.674;2022-12-11T06:11:23;100386.41;;;3.10;100.00
47753;BME280;2038;51.728;6.674;2022-12-11T06:13:51;100382.19;;;3.19;100.00
47753;BME280;2038;51.728;6.674;2022-12-11T06:16:18;100384.91;;;3.12;100.00
47753;BME280;2038;51.728;6.674;2022-12-11T06:18:45;100370.56;;;3.11;100.00
47753;BME280;2038;51.728;6.674;2022-12-11T06:21:25;100370.22;;;3.16;100.00
47753;BME280;2038;51.728;6.674;2022-12-11T06:23:55;100375.59;;;3.11;100.00
47753;BME280;2038;51.728;6.674;2022-12-11T06:26:23;100379.88;;;3.12;100.00
47753;BME280;2038;51.728;6.674;2022-12-11T06:28:50;100380.41;;;3.18;100.00
47753;BME280;2038;51.728;6.674;2022-12-11T06:31:17;100375.84;;;3.14;100.00
47753;BME280;2038;51.728;6.674;2022-12-11T06:33:44;100378.78;;;3.18;100.00
47753;BME280;2038;51.728;6.674;2022-12-11T06:36:14;100380.16;;;3.15;100.00
47753;BME280;2038;51.728;6.674;2022-12-11T06:38:42;100388.63;;;3.25;100.00
47753;BME280;2038;51.728;6.674;2022-12-11T06:41:09;100390.16;;;3.23;100.00
47753;BME280;2038;51.728;6.674;2022-12-11T06:43:37;100389.09;;;3.21;100.00
47753;BME280;2038;51.728;6.674;2022-12-11T06:46:06;100391.28;;;3.27;100.00
47753;BME280;2038;51.728;6.674;2022-12-11T06:48:53;100393.19;;;3.29;100.00
47753;BME280;2038;51.728;6.674;2022-12-11T06:51:20;100392.91;;;3.26;100.00
47753;BME280;2038;51.728;6.674;2022-12-11T06:53:53;100390.00;;;3.22;100.00
47753;BME280;2038;51.728;6.674;2022-12-11T06:56:21;100387.16;;;3.27;100.00
47753;BME280;2038;51.728;6.674;2022-12-11T06:58:49;100390.41;;;3.26;100.00
47753;BME280;2038;51.728;6.674;2022-12-11T07:01:20;100392.66;;;3.23;100.00
47753;BME280;2038;51.728;6.674;2022-12-11T07:03:51;100392.50;;;3.22;100.00
47753;BME280;2038;51.728;6.674;2022-12-11T07:06:18;100396.81;;;3.23;100.00
47753;BME280;2038;51.728;6.674;2022-12-11T07:08:44;100390.41;;;3.26;100.00
47753;BME280;2038;51.728;6.674;2022-12-11T07:11:16;100386.88;;;3.24;100.00
47753;BME280;2038;51.728;6.674;2022-12-11T07:13:43;100395.03;;;3.22;100.00
47753;BME280;2038;51.728;6.674;2022-12-11T07:16:11;100393.66;;;3.25;100.00
47753;BME280;2038;51.728;6.674;2022-12-11T07:18:42;100394.16;;;3.21;100.00
47753;BME280;2038;51.728;6.674;2022-12-11T07:21:12;100395.44;;;3.26;100.00
47753;BME280;2038;51.728;6.674;2022-12-11T07:23:39;100394.16;;;3.21;100.00
47753;BME280;2038;51.728;6.674;2022-12-11T07:26:08;100391.50;;;3.20;100.00
47753;BME280;2038;51.728;6.674;2022-12-11T07:28:39;100388.84;;;3.18;100.00
47753;BME280;2038;51.728;6.674;2022-12-11T07:31:17;100393.81;;;3.27;100.00
47753;BME280;2038;51.728;6.674;2022-12-11T07:33:45;100390.63;;;3.19;100.00
47753;BME280;2038;51.728;6.674;2022-12-11T07:36:12;100400.69;;;3.19;100.00
47753;BME280;2038;51.728;6.674;2022-12-11T07:38:40;100399.47;;;3.24;100.00
47753;BME280;2038;51.728;6.674;2022-12-11T07:41:09;100401.38;;;3.27;100.00
47753;BME280;2038;51.728;6.674;2022-12-11T07:43:37;100405.03;;;3.30;100.00
47753;BME280;2038;51.728;6.674;2022-12-11T07:46:05;100405.50;;;3.26;100.00
47753;BME280;2038;51.728;6.674;2022-12-11T07:48:37;100404.28;;;3.32;100.00
47753;BME280;2038;51.728;6.674;2022-12-11T07:53:43;100408.44;;;3.31;100.00
47753;BME280;2038;51.728;6.674;2022-12-11T07:56:10;100415.38;;;3.34;100.00
47753;BME280;2038;51.728;6.674;2022-12-11T07:58:37;100410.97;;;3.31;100.00
47753;BME280;2038;51.728;6.674;2022-12-11T08:01:04;100418.38;;;3.29;100.00
47753;BME280;2038;51.728;6.674;2022-12-11T08:03:35;100417.28;;;3.36;100.00
47753;BME280;2038;51.728;6.674;2022-12-11T08:06:01;100419.81;;;3.36;100.00
47753;BME280;2038;51.728;6.674;2022-12-11T08:08:27;100415.03;;;3.39;100.00
47753;BME280;2038;51.728;6.674;2022-12-11T08:10:53;100423.22;;;3.37;100.00
47753;BME280;2038;51.728;6.674;2022-12-11T08:13:19;100421.91;;;3.32;100.00
47753;BME280;2038;51.728;6.674;2022-12-11T08:15:46;100421.56;;;3.37;100.00
47753;BME280;2038;51.728;6.674;2022-12-11T08:18:12;100421.28;;;3.34;100.00
47753;BME280;2038;51.728;6.674;2022-12-11T08:20:38;100412.25;;;3.36;100.00
47753;BME280;2038;51.728;6.674;2022-12-11T08:23:05;100411.38;;;3.36;100.00
47753;BME280;2038;51.728;6.674;2022-12-11T08:25:31;100412.91;;;3.44;100.00
47753;BME280;2038;51.728;6.674;2022-12-11T08:27:57;100411.31;;;3.54;100.00
47753;BME280;2038;51.728;6.674;2022-12-11T08:30:24;100418.63;;;3.51;100.00
47753;BME280;2038;51.728;6.674;2022-12-11T08:32:50;100411.47;;;3.37;100.00
47753;BME280;2038;51.728;6.674;2022-12-11T08:35:16;100411.97;;;3.33;100.00
47753;BME280;2038;51.728;6.674;2022-12-11T08:37:42;100418.66;;;3.33;100.00
47753;BME280;2038;51.728;6.674;2022-12-11T08:40:09;100416.94;;;3.23;100.00
47753;BME280;2038;51.728;6.674;2022-12-11T08:42:37;100420.22;;;3.22;100.00
47753;BME280;2038;51.728;6.674;2022-12-11T08:45:04;100422.50;;;3.29;100.00
47753;BME280;2038;51.728;6.674;2022-12-11T08:47:31;100417.84;;;3.23;100.00
47753;BME280;2038;51.728;6.674;2022-12-11T08:49:57;100409.88;;;3.19;100.00
47753;BME280;2038;51.728;6.674;2022-12-11T08:52:23;100408.09;;;3.18;100.00
47753;BME280;2038;51.728;6.674;2022-12-11T08:54:49;100413.03;;;3.16;100.00
47753;BME280;2038;51.728;6.674;2022-12-11T08:57:15;100419.81;;;3.17;100.00
47753;BME280;2038;51.728;6.674;2022-12-11T08:59:42;100413.13;;;3.18;100.00
47753;BME280;2038;51.728;6.674;2022-12-11T09:02:11;100415.31;;;3.23;100.00
47753;BME280;2038;51.728;6.674;2022-12-11T09:04:37;100401.69;;;3.21;100.00
47753;BME280;2038;51.728;6.674;2022-12-11T09:07:04;100412.66;;;3.22;100.00
47753;BME280;2038;51.728;6.674;2022-12-11T09:09:30;100407.09;;;3.16;100.00
47753;BME280;2038;51.728;6.674;2022-12-11T09:11:56;100404.44;;;3.14;100.00
47753;BME280;2038;51.728;6.674;2022-12-11T09:14:22;100406.22;;;3.15;100.00
47753;BME280;2038;51.728;6.674;2022-12-11T09:16:48;100415.25;;;3.13;100.00
47753;BME280;2038;51.728;6.674;2022-12-11T09:19:15;100410.91;;;3.21;100.00
47753;BME280;2038;51.728;6.674;2022-12-11T09:21:43;100409.88;;;3.19;100.00
47753;BME280;2038;51.728;6.674;2022-12-11T09:24:11;100410.13;;;3.22;100.00
47753;BME280;2038;51.728;6.674;2022-12-11T09:26:38;100412.03;;;3.06;100.00
47753;BME280;2038;51.728;6.674;2022-12-11T09:29:05;100401.97;;;3.06;100.00
47753;BME280;2038;51.728;6.674;2022-12-11T09:31:35;100412.53;;;3.02;100.00
47753;BME280;2038;51.728;6.674;2022-12-11T09:34:07;100405.44;;;2.98;100.00
47753;BME280;2038;51.728;6.674;2022-12-11T09:36:38;100403.09;;;2.99;100.00
47753;BME280;2038;51.728;6.674;2022-12-11T09:39:06;100407.31;;;3.09;100.00
47753;BME280;2038;51.728;6.674;2022-12-11T09:41:45;100409.69;;;3.07;100.00
47753;BME280;2038;51.728;6.674;2022-12-11T09:44:31;100406.41;;;3.08;100.00
47753;BME280;2038;51.728;6.674;2022-12-11T09:47:26;100402.28;;;3.09;100.00
47753;BME280;2038;51.728;6.674;2022-12-11T09:52:56;100407.56;;;3.12;100.00
47753;BME280;2038;51.728;6.674;2022-12-11T09:55:38;100401.81;;;3.13;100.00
47753;BME280;2038;51.728;6.674;2022-12-11T10:05:28;100403.47;;;3.22;100.00
47753;BME280;2038;51.728;6.674;2022-12-11T10:08:03;100408.41;;;3.21;100.00
47753;BME280;2038;51.728;6.674;2022-12-11T10:13:43;100406.72;;;3.21;100.00
47753;BME280;2038;51.728;6.674;2022-12-11T10:16:34;100408.78;;;3.25;100.00
47753;BME280;2038;51.728;6.674;2022-12-11T10:19:04;100411.28;;;3.25;100.00
47753;BME280;2038;51.728;6.674;2022-12-11T10:21:37;100406.94;;;3.14;100.00
47753;BME280;2038;51.728;6.674;2022-12-11T10:24:17;100407.84;;;3.15;100.00
47753;BME280;2038;51.728;6.674;2022-12-11T10:26:55;100406.63;;;3.20;100.00
47753;BME280;2038;51.728;6.674;2022-12-11T10:29:23;100397.91;;;3.16;100.00
47753;BME280;2038;51.728;6.674;2022-12-11T10:31:56;100404.69;;;3.17;100.00
47753;BME280;2038;51.728;6.674;2022-12-11T10:34:35;100402.19;;;3.17;100.00
47753;BME280;2038;51.728;6.674;2022-12-11T10:37:05;100399.41;;;3.14;100.00
47753;BME280;2038;51.728;6.674;2022-12-11T10:39:31;100398.50;;;3.14;100.00
47753;BME280;2038;51.728;6.674;2022-12-11T10:41:57;100390.97;;;3.14;100.00
47753;BME280;2038;51.728;6.674;2022-12-11T10:44:28;100390.97;;;3.14;100.00
47753;BME280;2038;51.728;6.674;2022-12-11T10:47:17;100395.47;;;3.08;100.00
47753;BME280;2038;51.728;6.674;2022-12-11T10:49:55;100393.28;;;3.02;100.00
47753;BME280;2038;51.728;6.674;2022-12-11T10:52:25;100393.28;;;3.02;100.00
47753;BME280;2038;51.728;6.674;2022-12-11T10:55:19;100392.88;;;2.98;100.00
47753;BME280;2038;51.728;6.674;2022-12-11T10:58:04;100386.00;;;3.05;100.00
47753;BME280;2038;51.728;6.674;2022-12-11T11:00:35;100382.72;;;3.06;100.00
47753;BME280;2038;51.728;6.674;2022-12-11T11:03:26;100383.63;;;3.07;100.00
47753;BME280;2038;51.728;6.674;2022-12-11T11:06:16;100376.97;;;2.89;100.00
47753;BME280;2038;51.728;6.674;2022-12-11T11:08:46;100374.50;;;2.80;100.00
47753;BME280;2038;51.728;6.674;2022-12-11T11:11:36;100371.69;;;2.77;100.00
47753;BME280;2038;51.728;6.674;2022-12-11T11:14:05;100374.22;;;2.77;100.00
47753;BME280;2038;51.728;6.674;2022-12-11T11:16:42;100368.84;;;2.82;100.00
47753;BME280;2038;51.728;6.674;2022-12-11T11:19:20;100374.50;;;2.80;100.00
47753;BME280;2038;51.728;6.674;2022-12-11T11:21:52;100380.28;;;2.79;100.00
47753;BME280;2038;51.728;6.674;2022-12-11T11:24:46;100368.13;;;2.83;100.00
47753;BME280;2038;51.728;6.674;2022-12-11T11:29:56;100366.34;;;2.82;100.00
47753;BME280;2038;51.728;6.674;2022-12-11T11:32:37;100366.34;;;2.82;100.00
47753;BME280;2038;51.728;6.674;2022-12-11T11:37:35;100353.13;;;2.85;100.00
47753;BME280;2038;51.728;6.674;2022-12-11T11:48:47;100357.28;;;3.03;100.00
47753;BME280;2038;51.728;6.674;2022-12-11T11:51:59;100354.44;;;3.09;100.00
47753;BME280;2038;51.728;6.674;2022-12-11T11:55:41;100357.72;;;3.08;100.00
47753;BME280;2038;51.728;6.674;2022-12-11T11:57:52;100355.44;;;3.11;100.00
47753;BME280;2038;51.728;6.674;2022-12-11T12:00:27;100356.38;;;3.21;100.00
47753;BME280;2038;51.728;6.674;2022-12-11T12:03:01;100358.91;;;3.21;100.00
47753;BME280;2038;51.728;6.674;2022-12-11T12:08:31;100349.59;;;3.20;100.00
47753;BME280;2038;51.728;6.674;2022-12-11T12:23:24;100346.94;;;3.19;100.00
47753;BME280;2038;51.728;6.674;2022-12-11T12:26:25;100350.66;;;3.14;100.00
47753;BME280;2038;51.728;6.674;2022-12-11T12:29:29;100334.78;;;3.05;100.00
47753;BME280;2038;51.728;6.674;2022-12-11T12:38:30;100333.31;;;2.88;100.00
47753;BME280;2038;51.728;6.674;2022-12-11T12:41:41;100335.25;;;2.82;100.00
47753;BME280;2038;51.728;6.674;2022-12-11T12:44:45;100334.13;;;2.78;100.00
47753;BME280;2038;51.728;6.674;2022-12-11T12:47:24;100337.50;;;2.79;100.00
47753;BME280;2038;51.728;6.674;2022-12-11T12:49:54;100333.16;;;2.87;100.00
47753;BME280;2038;51.728;6.674;2022-12-11T12:52:35;100330.00;;;2.89;100.00
47753;BME280;2038;51.728;6.674;2022-12-11T12:55:15;100334.44;;;2.92;100.00
47753;BME280;2038;51.728;6.674;2022-12-11T12:57:55;100324.97;;;2.89;100.00
47753;BME280;2038;51.728;6.674;2022-12-11T13:00:39;100327.66;;;2.91;100.00
47753;BME280;2038;51.728;6.674;2022-12-11T13:03:20;100324.44;;;3.02;100.00
47753;BME280;2038;51.728;6.674;2022-12-11T13:05:57;100329.88;;;3.06;100.00
47753;BME280;2038;51.728;6.674;2022-12-11T13:08:47;100325.38;;;3.12;100.00
47753;BME280;2038;51.728;6.674;2022-12-11T13:11:19;100329.59;;;3.03;100.00
47753;BME280;2038;51.728;6.674;2022-12-11T13:14:31;100325.66;;;3.15;100.00
47753;BME280;2038;51.728;6.674;2022-12-11T13:17:23;100321.56;;;3.07;100.00
47753;BME280;2038;51.728;6.674;2022-12-11T13:20:16;100317.75;;;3.02;100.00
47753;BME280;2038;51.728;6.674;2022-12-11T13:23:09;100319.22;;;3.09;100.00
47753;BME280;2038;51.728;6.674;2022-12-11T13:25:49;100318.50;;;3.20;100.00
47753;BME280;2038;51.728;6.674;2022-12-11T13:33:55;100323.06;;;3.24;100.00
47753;BME280;2038;51.728;6.674;2022-12-11T13:36:36;100324.28;;;3.19;100.00
47753;BME280;2038;51.728;6.674;2022-12-11T13:39:15;100324.19;;;3.27;100.00
47753;BME280;2038;51.728;6.674;2022-12-11T13:41:52;100323.97;;;3.35;100.00
47753;BME280;2038;51.728;6.674;2022-12-11T13:44:26;100327.78;;;3.40;100.00
47753;BME280;2038;51.728;6.674;2022-12-11T13:46:59;100326.53;;;3.45;100.00
47753;BME280;2038;51.728;6.674;2022-12-11T13:49:33;100321.69;;;3.38;100.00
47753;BME280;2038;51.728;6.674;2022-12-11T13:52:02;100322.72;;;3.40;100.00
47753;BME280;2038;51.728;6.674;2022-12-11T13:54:31;100332.16;;;3.32;100.00
47753;BME280;2038;51.728;6.674;2022-12-11T13:59:40;100323.44;;;3.28;100.00
47753;BME280;2038;51.728;6.674;2022-12-11T14:02:20;100327.72;;;3.29;100.00
47753;BME280;2038;51.728;6.674;2022-12-11T14:05:03;100332.75;;;3.29;100.00
47753;BME280;2038;51.728;6.674;2022-12-11T14:07:35;100329.50;;;3.30;100.00
47753;BME280;2038;51.728;6.674;2022-12-11T14:10:16;100332.25;;;3.34;100.00
47753;BME280;2038;51.728;6.674;2022-12-11T14:15:28;100325.69;;;3.25;100.00
47753;BME280;2038;51.728;6.674;2022-12-11T14:17:56;100331.34;;;3.23;100.00
47753;BME280;2038;51.728;6.674;2022-12-11T14:20:29;100335.16;;;3.28;100.00
47753;BME280;2038;51.728;6.674;2022-12-11T14:23:12;100326.81;;;3.29;100.00
47753;BME280;2038;51.728;6.674;2022-12-11T14:25:50;100329.22;;;3.27;100.00
47753;BME280;2038;51.728;6.674;2022-12-11T14:28:18;100330.59;;;3.24;100.00
47753;BME280;2038;51.728;6.674;2022-12-11T14:30:49;100327.69;;;3.19;100.00
47753;BME280;2038;51.728;6.674;2022-12-11T14:33:19;100332.56;;;3.18;100.00
47753;BME280;2038;51.728;6.674;2022-12-11T14:35:50;100334.59;;;3.22;100.00
47753;BME280;2038;51.728;6.674;2022-12-11T14:38:23;100342.63;;;3.18;100.00
47753;BME280;2038;51.728;6.674;2022-12-11T14:41:00;100344.25;;;3.36;100.00